sensor_id;sensor_type;location;lat;lon;timestamp;P1;durP1;ratioP1;P2;durP2;ratioP2
10335;SDS011;5213;53.548;9.930;2023-12-20T00:02:16;9.52;;;2.03;;
10335;SDS011;5213;53.548;9.930;2023-12-20T00:04:42;9.07;;;2.42;;
10335;SDS011;5213;53.548;9.930;2023-12-20T00:07:08;11.20;;;1.90;;
10335;SDS011;5213;53.548;9.930;2023-12-20T00:09:33;12.95;;;2.33;;
10335;SDS011;5213;53.548;9.930;2023-12-20T00:11:59;8.85;;;2.03;;
10335;SDS011;5213;53.548;9.930;2023-12-20T00:14:25;10.02;;;2.08;;
10335;SDS011;5213;53.548;9.930;2023-12-20T00:16:50;11.25;;;2.33;;
10335;SDS011;5213;53.548;9.930;2023-12-20T00:19:16;12.85;;;2.25;;
10335;SDS011;5213;53.548;9.930;2023-12-20T00:21:42;13.52;;;2.30;;
10335;SDS011;5213;53.548;9.930;2023-12-20T00:24:07;12.55;;;2.53;;
10335;SDS011;5213;53.548;9.930;2023-12-20T00:26:33;8.60;;;2.58;;
10335;SDS011;5213;53.548;9.930;2023-12-20T00:28:59;10.85;;;2.63;;
10335;SDS011;5213;53.548;9.930;2023-12-20T00:31:24;9.40;;;2.70;;
10335;SDS011;5213;53.548;9.930;2023-12-20T00:33:50;13.70;;;3.03;;
10335;SDS011;5213;53.548;9.930;2023-12-20T00:36:16;12.75;;;2.67;;
10335;SDS011;5213;53.548;9.930;2023-12-20T00:38:41;11.85;;;3.33;;
10335;SDS011;5213;53.548;9.930;2023-12-20T00:41:07;11.32;;;3.00;;
10335;SDS011;5213;53.548;9.930;2023-12-20T00:43:32;11.45;;;2.60;;
10335;SDS011;5213;53.548;9.930;2023-12-20T00:45:58;8.63;;;2.45;;
10335;SDS011;5213;53.548;9.930;2023-12-20T00:48:25;11.93;;;2.92;;
10335;SDS011;5213;53.548;9.930;2023-12-20T00:50:52;10.43;;;2.33;;
10335;SDS011;5213;53.548;9.930;2023-12-20T00:53:17;9.50;;;2.05;;
10335;SDS011;5213;53.548;9.930;2023-12-20T00:55:43;10.15;;;2.30;;
10335;SDS011;5213;53.548;9.930;2023-12-20T00:58:10;12.50;;;2.22;;
10335;SDS011;5213;53.548;9.930;2023-12-20T01:00:35;10.35;;;2.67;;
10335;SDS011;5213;53.548;9.930;2023-12-20T01:03:01;9.25;;;2.10;;
10335;SDS011;5213;53.548;9.930;2023-12-20T01:05:27;8.80;;;2.28;;
10335;SDS011;5213;53.548;9.930;2023-12-20T01:07:52;8.18;;;2.03;;
10335;SDS011;5213;53.548;9.930;2023-12-20T01:10:18;13.20;;;2.15;;
10335;SDS011;5213;53.548;9.930;2023-12-20T01:12:43;12.25;;;2.25;;
10335;SDS011;5213;53.548;9.930;2023-12-20T01:15:09;16.25;;;2.80;;
10335;SDS011;5213;53.548;9.930;2023-12-20T01:17:35;10.45;;;2.08;;
10335;SDS011;5213;53.548;9.930;2023-12-20T01:20:01;10.48;;;2.08;;
10335;SDS011;5213;53.548;9.930;2023-12-20T01:22:26;15.88;;;2.63;;
10335;SDS011;5213;53.548;9.930;2023-12-20T01:24:52;12.07;;;2.20;;
10335;SDS011;5213;53.548;9.930;2023-12-20T01:27:18;11.15;;;2.03;;
10335;SDS011;5213;53.548;9.930;2023-12-20T01:29:43;7.63;;;2.03;;
10335;SDS011;5213;53.548;9.930;2023-12-20T01:32:09;10.93;;;2.35;;
10335;SDS011;5213;53.548;9.930;2023-12-20T01:34:35;9.85;;;2.05;;
10335;SDS011;5213;53.548;9.930;2023-12-20T01:37:01;15.85;;;2.60;;
10335;SDS011;5213;53.548;9.930;2023-12-20T01:39:27;12.15;;;1.92;;
10335;SDS011;5213;53.548;9.930;2023-12-20T01:41:53;10.50;;;2.30;;
10335;SDS011;5213;53.548;9.930;2023-12-20T01:44:18;14.70;;;2.15;;
10335;SDS011;5213;53.548;9.930;2023-12-20T01:46:44;14.10;;;2.47;;
10335;SDS011;5213;53.548;9.930;2023-12-20T01:49:11;10.85;;;2.28;;
10335;SDS011;5213;53.548;9.930;2023-12-20T01:51:37;7.43;;;1.75;;
10335;SDS011;5213;53.548;9.930;2023-12-20T01:54:03;11.90;;;2.65;;
10335;SDS011;5213;53.548;9.930;2023-12-20T01:56:29;10.57;;;2.17;;
10335;SDS011;5213;53.548;9.930;2023-12-20T01:58:56;8.95;;;2.17;;
10335;SDS011;5213;53.548;9.930;2023-12-20T02:01:22;10.93;;;2.03;;
10335;SDS011;5213;53.548;9.930;2023-12-20T02:03:48;10.45;;;2.00;;
10335;SDS011;5213;53.548;9.930;2023-12-20T02:06:14;7.80;;;2.10;;
10335;SDS011;5213;53.548;9.930;2023-12-20T02:08:41;9.35;;;2.22;;
10335;SDS011;5213;53.548;9.930;2023-12-20T02:11:06;9.68;;;2.17;;
10335;SDS011;5213;53.548;9.930;2023-12-20T02:13:33;8.02;;;2.08;;
10335;SDS011;5213;53.548;9.930;2023-12-20T02:15:58;12.88;;;2.40;;
10335;SDS011;5213;53.548;9.930;2023-12-20T02:18:25;10.82;;;2.05;;
10335;SDS011;5213;53.548;9.930;2023-12-20T02:20:51;9.68;;;1.90;;
10335;SDS011;5213;53.548;9.930;2023-12-20T02:23:16;11.52;;;2.10;;
10335;SDS011;5213;53.548;9.930;2023-12-20T02:25:42;10.82;;;2.30;;
10335;SDS011;5213;53.548;9.930;2023-12-20T02:28:07;7.93;;;2.45;;
10335;SDS011;5213;53.548;9.930;2023-12-20T02:30:33;7.75;;;2.25;;
10335;SDS011;5213;53.548;9.930;2023-12-20T02:32:59;9.82;;;2.40;;
10335;SDS011;5213;53.548;9.930;2023-12-20T02:35:26;9.80;;;2.03;;
10335;SDS011;5213;53.548;9.930;2023-12-20T02:37:51;8.88;;;2.20;;
10335;SDS011;5213;53.548;9.930;2023-12-20T02:40:17;7.22;;;2.08;;
10335;SDS011;5213;53.548;9.930;2023-12-20T02:42:42;9.13;;;2.28;;
10335;SDS011;5213;53.548;9.930;2023-12-20T02:45:08;13.02;;;2.25;;
10335;SDS011;5213;53.548;9.930;2023-12-20T02:47:34;9.98;;;1.90;;
10335;SDS011;5213;53.548;9.930;2023-12-20T02:49:59;9.40;;;2.90;;
10335;SDS011;5213;53.548;9.930;2023-12-20T02:52:25;8.10;;;2.35;;
10335;SDS011;5213;53.548;9.930;2023-12-20T02:54:52;9.70;;;2.50;;
10335;SDS011;5213;53.548;9.930;2023-12-20T02:57:18;10.07;;;2.55;;
10335;SDS011;5213;53.548;9.930;2023-12-20T02:59:43;6.65;;;2.03;;
10335;SDS011;5213;53.548;9.930;2023-12-20T03:02:09;10.18;;;2.00;;
10335;SDS011;5213;53.548;9.930;2023-12-20T03:04:34;8.95;;;2.35;;
10335;SDS011;5213;53.548;9.930;2023-12-20T03:07:00;4.95;;;1.92;;
10335;SDS011;5213;53.548;9.930;2023-12-20T03:09:26;9.40;;;2.30;;
10335;SDS011;5213;53.548;9.930;2023-12-20T03:11:51;5.72;;;2.20;;
10335;SDS011;5213;53.548;9.930;2023-12-20T03:14:17;6.35;;;2.00;;
10335;SDS011;5213;53.548;9.930;2023-12-20T03:16:46;10.48;;;2.20;;
10335;SDS011;5213;53.548;9.930;2023-12-20T03:19:14;8.70;;;2.15;;
10335;SDS011;5213;53.548;9.930;2023-12-20T03:21:41;11.63;;;2.25;;
10335;SDS011;5213;53.548;9.930;2023-12-20T03:24:06;9.35;;;2.33;;
10335;SDS011;5213;53.548;9.930;2023-12-20T03:26:32;9.40;;;2.65;;
10335;SDS011;5213;53.548;9.930;2023-12-20T03:28:57;5.55;;;2.05;;
10335;SDS011;5213;53.548;9.930;2023-12-20T03:31:23;5.30;;;1.90;;
10335;SDS011;5213;53.548;9.930;2023-12-20T03:33:48;6.93;;;2.20;;
10335;SDS011;5213;53.548;9.930;2023-12-20T03:36:15;10.70;;;2.20;;
10335;SDS011;5213;53.548;9.930;2023-12-20T03:38:41;7.72;;;1.73;;
10335;SDS011;5213;53.548;9.930;2023-12-20T03:41:07;8.38;;;1.90;;
10335;SDS011;5213;53.548;9.930;2023-12-20T03:43:32;6.85;;;2.17;;
10335;SDS011;5213;53.548;9.930;2023-12-20T03:45:58;7.93;;;1.90;;
10335;SDS011;5213;53.548;9.930;2023-12-20T03:48:25;9.40;;;2.03;;
10335;SDS011;5213;53.548;9.930;2023-12-20T03:50:50;8.60;;;2.13;;
10335;SDS011;5213;53.548;9.930;2023-12-20T03:53:16;7.47;;;1.73;;
10335;SDS011;5213;53.548;9.930;2023-12-20T03:55:41;8.27;;;2.03;;
10335;SDS011;5213;53.548;9.930;2023-12-20T03:58:07;4.18;;;1.77;;
10335;SDS011;5213;53.548;9.930;2023-12-20T04:00:32;6.45;;;1.90;;
10335;SDS011;5213;53.548;9.930;2023-12-20T04:02:58;5.85;;;1.65;;
10335;SDS011;5213;53.548;9.930;2023-12-20T04:05:23;9.63;;;2.17;;
10335;SDS011;5213;53.548;9.930;2023-12-20T04:07:49;5.85;;;2.15;;
10335;SDS011;5213;53.548;9.930;2023-12-20T04:10:15;5.38;;;1.88;;
10335;SDS011;5213;53.548;9.930;2023-12-20T04:12:41;8.30;;;2.28;;
10335;SDS011;5213;53.548;9.930;2023-12-20T04:15:06;5.78;;;1.45;;
10335;SDS011;5213;53.548;9.930;2023-12-20T04:17:34;6.60;;;1.83;;
10335;SDS011;5213;53.548;9.930;2023-12-20T04:20:01;5.22;;;1.70;;
10335;SDS011;5213;53.548;9.930;2023-12-20T04:22:26;8.15;;;2.20;;
10335;SDS011;5213;53.548;9.930;2023-12-20T04:24:52;8.45;;;2.78;;
10335;SDS011;5213;53.548;9.930;2023-12-20T04:27:17;3.35;;;1.77;;
10335;SDS011;5213;53.548;9.930;2023-12-20T04:29:43;6.43;;;2.00;;
10335;SDS011;5213;53.548;9.930;2023-12-20T04:32:09;7.80;;;1.85;;
10335;SDS011;5213;53.548;9.930;2023-12-20T04:34:34;4.68;;;1.80;;
10335;SDS011;5213;53.548;9.930;2023-12-20T04:37:00;8.88;;;1.70;;
10335;SDS011;5213;53.548;9.930;2023-12-20T04:39:26;5.40;;;2.05;;
10335;SDS011;5213;53.548;9.930;2023-12-20T04:41:52;8.38;;;1.80;;
10335;SDS011;5213;53.548;9.930;2023-12-20T04:44:18;10.98;;;2.15;;
10335;SDS011;5213;53.548;9.930;2023-12-20T04:46:43;9.07;;;1.88;;
10335;SDS011;5213;53.548;9.930;2023-12-20T04:49:09;9.18;;;2.10;;
10335;SDS011;5213;53.548;9.930;2023-12-20T04:51:35;10.88;;;2.17;;
10335;SDS011;5213;53.548;9.930;2023-12-20T04:54:01;6.30;;;2.20;;
10335;SDS011;5213;53.548;9.930;2023-12-20T04:56:27;7.80;;;2.15;;
10335;SDS011;5213;53.548;9.930;2023-12-20T04:58:53;7.90;;;1.92;;
10335;SDS011;5213;53.548;9.930;2023-12-20T05:01:18;8.80;;;2.55;;
10335;SDS011;5213;53.548;9.930;2023-12-20T05:03:44;4.57;;;1.83;;
10335;SDS011;5213;53.548;9.930;2023-12-20T05:06:10;12.32;;;2.33;;
10335;SDS011;5213;53.548;9.930;2023-12-20T05:08:36;9.88;;;2.75;;
10335;SDS011;5213;53.548;9.930;2023-12-20T05:11:01;10.35;;;2.40;;
10335;SDS011;5213;53.548;9.930;2023-12-20T05:13:27;8.02;;;2.20;;
10335;SDS011;5213;53.548;9.930;2023-12-20T05:15:53;10.73;;;2.42;;
10335;SDS011;5213;53.548;9.930;2023-12-20T05:18:20;9.35;;;2.30;;
10335;SDS011;5213;53.548;9.930;2023-12-20T05:20:46;9.27;;;2.10;;
10335;SDS011;5213;53.548;9.930;2023-12-20T05:23:12;15.77;;;2.78;;
10335;SDS011;5213;53.548;9.930;2023-12-20T05:25:38;12.13;;;2.30;;
10335;SDS011;5213;53.548;9.930;2023-12-20T05:28:04;8.75;;;2.00;;
10335;SDS011;5213;53.548;9.930;2023-12-20T05:30:30;9.45;;;2.33;;
10335;SDS011;5213;53.548;9.930;2023-12-20T05:32:55;10.15;;;2.30;;
10335;SDS011;5213;53.548;9.930;2023-12-20T05:35:21;7.40;;;2.25;;
10335;SDS011;5213;53.548;9.930;2023-12-20T05:37:48;11.05;;;2.65;;
10335;SDS011;5213;53.548;9.930;2023-12-20T05:40:14;8.70;;;2.60;;
10335;SDS011;5213;53.548;9.930;2023-12-20T05:42:40;11.27;;;2.88;;
10335;SDS011;5213;53.548;9.930;2023-12-20T05:45:05;8.65;;;2.33;;
10335;SDS011;5213;53.548;9.930;2023-12-20T05:47:31;11.27;;;2.30;;
10335;SDS011;5213;53.548;9.930;2023-12-20T05:49:57;9.13;;;2.08;;
10335;SDS011;5213;53.548;9.930;2023-12-20T05:52:23;10.52;;;2.15;;
10335;SDS011;5213;53.548;9.930;2023-12-20T05:54:48;9.88;;;2.67;;
10335;SDS011;5213;53.548;9.930;2023-12-20T05:57:14;10.20;;;2.70;;
10335;SDS011;5213;53.548;9.930;2023-12-20T05:59:40;8.45;;;2.33;;
10335;SDS011;5213;53.548;9.930;2023-12-20T06:02:05;7.95;;;2.30;;
10335;SDS011;5213;53.548;9.930;2023-12-20T06:04:31;5.57;;;1.83;;
10335;SDS011;5213;53.548;9.930;2023-12-20T06:06:57;6.90;;;2.05;;
10335;SDS011;5213;53.548;9.930;2023-12-20T06:09:23;13.38;;;3.00;;
10335;SDS011;5213;53.548;9.930;2023-12-20T06:11:49;6.35;;;2.28;;
10335;SDS011;5213;53.548;9.930;2023-12-20T06:14:14;11.95;;;2.47;;
10335;SDS011;5213;53.548;9.930;2023-12-20T06:16:40;8.95;;;2.53;;
10335;SDS011;5213;53.548;9.930;2023-12-20T06:19:06;14.52;;;2.85;;
10335;SDS011;5213;53.548;9.930;2023-12-20T06:21:31;7.40;;;2.38;;
10335;SDS011;5213;53.548;9.930;2023-12-20T06:23:58;8.05;;;2.20;;
10335;SDS011;5213;53.548;9.930;2023-12-20T06:26:24;8.15;;;2.20;;
10335;SDS011;5213;53.548;9.930;2023-12-20T06:28:50;8.38;;;2.50;;
10335;SDS011;5213;53.548;9.930;2023-12-20T06:31:15;8.93;;;2.13;;
10335;SDS011;5213;53.548;9.930;2023-12-20T06:33:42;8.10;;;2.42;;
10335;SDS011;5213;53.548;9.930;2023-12-20T06:36:11;8.40;;;2.65;;
10335;SDS011;5213;53.548;9.930;2023-12-20T06:38:38;8.82;;;2.97;;
10335;SDS011;5213;53.548;9.930;2023-12-20T06:41:03;8.00;;;2.42;;
10335;SDS011;5213;53.548;9.930;2023-12-20T06:43:29;8.05;;;2.28;;
10335;SDS011;5213;53.548;9.930;2023-12-20T06:45:56;5.50;;;2.00;;
10335;SDS011;5213;53.548;9.930;2023-12-20T06:48:21;7.18;;;2.20;;
10335;SDS011;5213;53.548;9.930;2023-12-20T06:50:47;6.57;;;2.17;;
10335;SDS011;5213;53.548;9.930;2023-12-20T06:53:21;7.28;;;1.88;;
10335;SDS011;5213;53.548;9.930;2023-12-20T06:55:47;8.07;;;2.00;;
10335;SDS011;5213;53.548;9.930;2023-12-20T06:58:12;6.70;;;2.30;;
10335;SDS011;5213;53.548;9.930;2023-12-20T07:00:38;10.82;;;2.38;;
10335;SDS011;5213;53.548;9.930;2023-12-20T07:03:03;10.20;;;2.50;;
10335;SDS011;5213;53.548;9.930;2023-12-20T07:05:29;6.85;;;2.58;;
10335;SDS011;5213;53.548;9.930;2023-12-20T07:07:55;6.72;;;2.15;;
10335;SDS011;5213;53.548;9.930;2023-12-20T07:10:20;10.55;;;2.47;;
10335;SDS011;5213;53.548;9.930;2023-12-20T07:12:46;8.77;;;2.45;;
10335;SDS011;5213;53.548;9.930;2023-12-20T07:15:13;10.40;;;2.85;;
10335;SDS011;5213;53.548;9.930;2023-12-20T07:17:39;10.93;;;2.38;;
10335;SDS011;5213;53.548;9.930;2023-12-20T07:20:05;12.18;;;2.70;;
10335;SDS011;5213;53.548;9.930;2023-12-20T07:22:34;11.18;;;2.67;;
10335;SDS011;5213;53.548;9.930;2023-12-20T07:25:00;7.35;;;2.20;;
10335;SDS011;5213;53.548;9.930;2023-12-20T07:27:26;8.27;;;3.05;;
10335;SDS011;5213;53.548;9.930;2023-12-20T07:29:51;18.17;;;3.38;;
10335;SDS011;5213;53.548;9.930;2023-12-20T07:32:17;7.18;;;2.60;;
10335;SDS011;5213;53.548;9.930;2023-12-20T07:34:43;11.73;;;2.53;;
10335;SDS011;5213;53.548;9.930;2023-12-20T07:37:09;8.98;;;2.50;;
10335;SDS011;5213;53.548;9.930;2023-12-20T07:39:41;8.57;;;3.17;;
10335;SDS011;5213;53.548;9.930;2023-12-20T07:42:07;10.77;;;4.78;;
10335;SDS011;5213;53.548;9.930;2023-12-20T07:44:34;11.15;;;4.90;;
10335;SDS011;5213;53.548;9.930;2023-12-20T07:47:00;12.00;;;5.15;;
10335;SDS011;5213;53.548;9.930;2023-12-20T07:49:26;15.60;;;3.75;;
10335;SDS011;5213;53.548;9.930;2023-12-20T07:51:52;11.98;;;3.47;;
10335;SDS011;5213;53.548;9.930;2023-12-20T07:54:18;11.63;;;3.60;;
10335;SDS011;5213;53.548;9.930;2023-12-20T07:56:43;10.40;;;3.50;;
10335;SDS011;5213;53.548;9.930;2023-12-20T07:59:10;14.70;;;3.15;;
10335;SDS011;5213;53.548;9.930;2023-12-20T08:01:35;11.05;;;3.50;;
10335;SDS011;5213;53.548;9.930;2023-12-20T08:04:01;10.57;;;3.05;;
10335;SDS011;5213;53.548;9.930;2023-12-20T08:06:26;11.30;;;3.05;;
10335;SDS011;5213;53.548;9.930;2023-12-20T08:08:52;11.60;;;3.58;;
10335;SDS011;5213;53.548;9.930;2023-12-20T08:11:18;15.50;;;3.40;;
10335;SDS011;5213;53.548;9.930;2023-12-20T08:13:43;8.98;;;2.72;;
10335;SDS011;5213;53.548;9.930;2023-12-20T08:16:09;12.40;;;3.22;;
10335;SDS011;5213;53.548;9.930;2023-12-20T08:18:36;11.25;;;2.80;;
10335;SDS011;5213;53.548;9.930;2023-12-20T08:21:02;7.82;;;2.55;;
10335;SDS011;5213;53.548;9.930;2023-12-20T08:23:27;10.18;;;2.30;;
10335;SDS011;5213;53.548;9.930;2023-12-20T08:25:53;9.10;;;2.55;;
10335;SDS011;5213;53.548;9.930;2023-12-20T08:28:18;12.02;;;3.35;;
10335;SDS011;5213;53.548;9.930;2023-12-20T08:30:44;12.52;;;3.63;;
10335;SDS011;5213;53.548;9.930;2023-12-20T08:33:10;8.70;;;3.75;;
10335;SDS011;5213;53.548;9.930;2023-12-20T08:35:38;6.90;;;2.63;;
10335;SDS011;5213;53.548;9.930;2023-12-20T08:38:06;9.30;;;2.75;;
10335;SDS011;5213;53.548;9.930;2023-12-20T08:40:32;11.48;;;2.83;;
10335;SDS011;5213;53.548;9.930;2023-12-20T08:42:58;9.68;;;3.33;;
10335;SDS011;5213;53.548;9.930;2023-12-20T08:45:24;7.97;;;3.08;;
10335;SDS011;5213;53.548;9.930;2023-12-20T08:47:49;14.07;;;3.30;;
10335;SDS011;5213;53.548;9.930;2023-12-20T08:50:15;11.40;;;2.25;;
10335;SDS011;5213;53.548;9.930;2023-12-20T08:52:41;8.40;;;2.58;;
10335;SDS011;5213;53.548;9.930;2023-12-20T08:55:07;9.10;;;2.60;;
10335;SDS011;5213;53.548;9.930;2023-12-20T08:57:33;10.68;;;2.97;;
10335;SDS011;5213;53.548;9.930;2023-12-20T08:59:58;10.50;;;2.80;;
10335;SDS011;5213;53.548;9.930;2023-12-20T09:02:24;6.00;;;2.38;;
10335;SDS011;5213;53.548;9.930;2023-12-20T09:04:50;10.13;;;2.22;;
10335;SDS011;5213;53.548;9.930;2023-12-20T09:09:51;7.63;;;2.33;;
10335;SDS011;5213;53.548;9.930;2023-12-20T09:12:17;6.50;;;2.38;;
10335;SDS011;5213;53.548;9.930;2023-12-20T09:14:46;7.30;;;2.20;;
10335;SDS011;5213;53.548;9.930;2023-12-20T09:17:13;5.65;;;2.00;;
10335;SDS011;5213;53.548;9.930;2023-12-20T09:19:38;6.43;;;2.20;;
10335;SDS011;5213;53.548;9.930;2023-12-20T09:22:04;4.82;;;2.10;;
10335;SDS011;5213;53.548;9.930;2023-12-20T09:24:31;3.83;;;1.98;;
10335;SDS011;5213;53.548;9.930;2023-12-20T09:26:56;3.70;;;1.70;;
10335;SDS011;5213;53.548;9.930;2023-12-20T09:29:22;3.35;;;1.50;;
10335;SDS011;5213;53.548;9.930;2023-12-20T09:31:49;4.93;;;1.58;;
10335;SDS011;5213;53.548;9.930;2023-12-20T09:34:15;1.83;;;1.10;;
10335;SDS011;5213;53.548;9.930;2023-12-20T09:36:42;4.78;;;1.95;;
10335;SDS011;5213;53.548;9.930;2023-12-20T09:39:12;1.80;;;1.00;;
10335;SDS011;5213;53.548;9.930;2023-12-20T09:41:39;1.33;;;0.88;;
10335;SDS011;5213;53.548;9.930;2023-12-20T09:44:12;3.13;;;1.10;;
10335;SDS011;5213;53.548;9.930;2023-12-20T09:46:42;1.30;;;0.82;;
10335;SDS011;5213;53.548;9.930;2023-12-20T09:49:11;3.15;;;0.98;;
10335;SDS011;5213;53.548;9.930;2023-12-20T09:51:37;1.05;;;0.70;;
10335;SDS011;5213;53.548;9.930;2023-12-20T09:54:04;1.55;;;0.73;;
10335;SDS011;5213;53.548;9.930;2023-12-20T09:56:30;0.73;;;0.73;;
10335;SDS011;5213;53.548;9.930;2023-12-20T09:58:56;1.27;;;0.60;;
10335;SDS011;5213;53.548;9.930;2023-12-20T10:01:22;0.60;;;0.60;;
10335;SDS011;5213;53.548;9.930;2023-12-20T10:03:49;0.82;;;0.50;;
10335;SDS011;5213;53.548;9.930;2023-12-20T10:06:17;0.63;;;0.63;;
10335;SDS011;5213;53.548;9.930;2023-12-20T10:08:42;0.85;;;0.40;;
10335;SDS011;5213;53.548;9.930;2023-12-20T10:11:08;0.85;;;0.70;;
10335;SDS011;5213;53.548;9.930;2023-12-20T10:13:34;0.80;;;0.70;;
10335;SDS011;5213;53.548;9.930;2023-12-20T10:16:07;0.50;;;0.50;;
10335;SDS011;5213;53.548;9.930;2023-12-20T10:18:33;2.08;;;0.60;;
10335;SDS011;5213;53.548;9.930;2023-12-20T10:20:59;1.35;;;0.80;;
10335;SDS011;5213;53.548;9.930;2023-12-20T10:23:25;0.95;;;0.70;;
10335;SDS011;5213;53.548;9.930;2023-12-20T10:25:57;1.65;;;0.80;;
10335;SDS011;5213;53.548;9.930;2023-12-20T10:28:24;2.13;;;0.63;;
10335;SDS011;5213;53.548;9.930;2023-12-20T10:30:53;4.00;;;0.77;;
10335;SDS011;5213;53.548;9.930;2023-12-20T10:33:25;1.48;;;0.90;;
10335;SDS011;5213;53.548;9.930;2023-12-20T10:35:52;1.73;;;0.77;;
10335;SDS011;5213;53.548;9.930;2023-12-20T10:38:18;1.33;;;0.80;;
10335;SDS011;5213;53.548;9.930;2023-12-20T10:40:45;2.17;;;1.00;;
10335;SDS011;5213;53.548;9.930;2023-12-20T10:43:11;1.50;;;0.80;;
10335;SDS011;5213;53.548;9.930;2023-12-20T10:45:37;1.75;;;1.23;;
10335;SDS011;5213;53.548;9.930;2023-12-20T10:48:03;3.35;;;1.02;;
10335;SDS011;5213;53.548;9.930;2023-12-20T10:50:30;4.00;;;1.20;;
10335;SDS011;5213;53.548;9.930;2023-12-20T10:52:56;2.70;;;0.88;;
10335;SDS011;5213;53.548;9.930;2023-12-20T10:55:23;2.45;;;1.13;;
10335;SDS011;5213;53.548;9.930;2023-12-20T10:57:50;4.13;;;1.33;;
10335;SDS011;5213;53.548;9.930;2023-12-20T11:00:17;3.30;;;0.93;;
10335;SDS011;5213;53.548;9.930;2023-12-20T11:02:44;6.80;;;1.40;;
10335;SDS011;5213;53.548;9.930;2023-12-20T11:08:07;2.33;;;1.25;;
10335;SDS011;5213;53.548;9.930;2023-12-20T11:13:32;2.30;;;1.00;;
10335;SDS011;5213;53.548;9.930;2023-12-20T11:16:02;1.55;;;0.95;;
10335;SDS011;5213;53.548;9.930;2023-12-20T11:18:29;2.63;;;1.00;;
10335;SDS011;5213;53.548;9.930;2023-12-20T11:20:55;9.40;;;1.30;;
10335;SDS011;5213;53.548;9.930;2023-12-20T11:23:32;5.07;;;1.30;;
10335;SDS011;5213;53.548;9.930;2023-12-20T11:26:01;8.10;;;1.30;;
10335;SDS011;5213;53.548;9.930;2023-12-20T11:28:27;3.33;;;1.02;;
10335;SDS011;5213;53.548;9.930;2023-12-20T11:30:55;7.57;;;2.45;;
10335;SDS011;5213;53.548;9.930;2023-12-20T11:33:25;9.10;;;2.03;;
10335;SDS011;5213;53.548;9.930;2023-12-20T11:36:01;4.30;;;1.50;;
10335;SDS011;5213;53.548;9.930;2023-12-20T11:38:35;6.43;;;2.00;;
10335;SDS011;5213;53.548;9.930;2023-12-20T11:41:07;9.10;;;1.85;;
10335;SDS011;5213;53.548;9.930;2023-12-20T11:43:36;3.65;;;1.30;;
10335;SDS011;5213;53.548;9.930;2023-12-20T11:46:05;6.22;;;1.48;;
10335;SDS011;5213;53.548;9.930;2023-12-20T11:48:34;3.47;;;1.35;;
10335;SDS011;5213;53.548;9.930;2023-12-20T11:51:01;5.00;;;1.50;;
10335;SDS011;5213;53.548;9.930;2023-12-20T11:53:28;3.97;;;1.42;;
10335;SDS011;5213;53.548;9.930;2023-12-20T11:55:56;3.25;;;1.52;;
10335;SDS011;5213;53.548;9.930;2023-12-20T11:58:21;11.32;;;2.20;;
10335;SDS011;5213;53.548;9.930;2023-12-20T12:00:48;7.18;;;2.13;;
10335;SDS011;5213;53.548;9.930;2023-12-20T12:03:15;9.98;;;2.03;;
10335;SDS011;5213;53.548;9.930;2023-12-20T12:05:41;4.28;;;1.73;;
10335;SDS011;5213;53.548;9.930;2023-12-20T12:08:06;10.00;;;2.05;;
10335;SDS011;5213;53.548;9.930;2023-12-20T12:10:32;7.22;;;1.90;;
10335;SDS011;5213;53.548;9.930;2023-12-20T12:12:58;6.65;;;1.85;;
10335;SDS011;5213;53.548;9.930;2023-12-20T12:15:25;8.38;;;2.00;;
10335;SDS011;5213;53.548;9.930;2023-12-20T12:17:56;8.75;;;1.70;;
10335;SDS011;5213;53.548;9.930;2023-12-20T12:20:22;6.68;;;2.40;;
10335;SDS011;5213;53.548;9.930;2023-12-20T12:22:59;7.55;;;1.80;;
10335;SDS011;5213;53.548;9.930;2023-12-20T12:25:29;10.52;;;2.08;;
10335;SDS011;5213;53.548;9.930;2023-12-20T12:27:56;9.38;;;2.95;;
10335;SDS011;5213;53.548;9.930;2023-12-20T12:30:22;9.68;;;2.50;;
10335;SDS011;5213;53.548;9.930;2023-12-20T12:32:48;10.57;;;2.13;;
10335;SDS011;5213;53.548;9.930;2023-12-20T12:35:14;6.13;;;1.75;;
10335;SDS011;5213;53.548;9.930;2023-12-20T12:37:40;5.97;;;2.33;;
10335;SDS011;5213;53.548;9.930;2023-12-20T12:40:13;9.88;;;2.20;;
10335;SDS011;5213;53.548;9.930;2023-12-20T12:42:40;4.25;;;1.67;;
10335;SDS011;5213;53.548;9.930;2023-12-20T12:45:08;7.32;;;2.13;;
10335;SDS011;5213;53.548;9.930;2023-12-20T12:47:34;6.65;;;1.88;;
10335;SDS011;5213;53.548;9.930;2023-12-20T12:50:01;6.90;;;1.98;;
10335;SDS011;5213;53.548;9.930;2023-12-20T12:52:27;7.22;;;1.90;;
10335;SDS011;5213;53.548;9.930;2023-12-20T12:54:53;7.78;;;1.80;;
10335;SDS011;5213;53.548;9.930;2023-12-20T12:57:19;7.70;;;1.95;;
10335;SDS011;5213;53.548;9.930;2023-12-20T12:59:45;6.13;;;1.85;;
10335;SDS011;5213;53.548;9.930;2023-12-20T13:02:14;12.05;;;2.20;;
10335;SDS011;5213;53.548;9.930;2023-12-20T13:04:40;7.70;;;1.80;;
10335;SDS011;5213;53.548;9.930;2023-12-20T13:07:07;4.13;;;1.70;;
10335;SDS011;5213;53.548;9.930;2023-12-20T13:09:35;7.93;;;1.92;;
10335;SDS011;5213;53.548;9.930;2023-12-20T13:12:01;6.90;;;2.25;;
10335;SDS011;5213;53.548;9.930;2023-12-20T13:14:29;9.35;;;2.70;;
10335;SDS011;5213;53.548;9.930;2023-12-20T13:16:55;7.18;;;2.25;;
10335;SDS011;5213;53.548;9.930;2023-12-20T13:19:21;7.00;;;2.03;;
10335;SDS011;5213;53.548;9.930;2023-12-20T13:21:46;9.10;;;2.40;;
10335;SDS011;5213;53.548;9.930;2023-12-20T13:24:13;7.45;;;2.00;;
10335;SDS011;5213;53.548;9.930;2023-12-20T13:26:39;9.90;;;2.33;;
10335;SDS011;5213;53.548;9.930;2023-12-20T13:29:04;11.77;;;2.95;;
10335;SDS011;5213;53.548;9.930;2023-12-20T13:31:30;10.23;;;2.63;;
10335;SDS011;5213;53.548;9.930;2023-12-20T13:33:56;11.98;;;3.20;;
10335;SDS011;5213;53.548;9.930;2023-12-20T13:36:21;12.32;;;2.90;;
10335;SDS011;5213;53.548;9.930;2023-12-20T13:38:47;12.50;;;2.70;;
10335;SDS011;5213;53.548;9.930;2023-12-20T13:41:13;13.23;;;3.20;;
10335;SDS011;5213;53.548;9.930;2023-12-20T13:43:39;7.00;;;2.53;;
10335;SDS011;5213;53.548;9.930;2023-12-20T13:46:04;12.10;;;2.50;;
10335;SDS011;5213;53.548;9.930;2023-12-20T13:48:30;10.82;;;2.55;;
10335;SDS011;5213;53.548;9.930;2023-12-20T13:50:56;10.10;;;3.55;;
10335;SDS011;5213;53.548;9.930;2023-12-20T13:53:21;16.95;;;3.63;;
10335;SDS011;5213;53.548;9.930;2023-12-20T13:55:47;11.55;;;3.20;;
10335;SDS011;5213;53.548;9.930;2023-12-20T13:58:13;14.52;;;3.63;;
10335;SDS011;5213;53.548;9.930;2023-12-20T14:00:38;14.95;;;3.00;;
10335;SDS011;5213;53.548;9.930;2023-12-20T14:03:05;15.35;;;3.17;;
10335;SDS011;5213;53.548;9.930;2023-12-20T14:05:31;18.15;;;3.35;;
10335;SDS011;5213;53.548;9.930;2023-12-20T14:07:56;12.55;;;3.00;;
10335;SDS011;5213;53.548;9.930;2023-12-20T14:10:22;11.43;;;3.33;;
10335;SDS011;5213;53.548;9.930;2023-12-20T14:12:48;14.90;;;4.35;;
10335;SDS011;5213;53.548;9.930;2023-12-20T14:15:14;18.42;;;3.83;;
10335;SDS011;5213;53.548;9.930;2023-12-20T14:17:40;14.60;;;3.25;;
10335;SDS011;5213;53.548;9.930;2023-12-20T14:20:09;13.93;;;3.22;;
10335;SDS011;5213;53.548;9.930;2023-12-20T14:22:35;13.63;;;2.95;;
10335;SDS011;5213;53.548;9.930;2023-12-20T14:25:03;13.77;;;3.30;;
10335;SDS011;5213;53.548;9.930;2023-12-20T14:27:29;14.68;;;3.65;;
10335;SDS011;5213;53.548;9.930;2023-12-20T14:29:55;12.60;;;3.63;;
10335;SDS011;5213;53.548;9.930;2023-12-20T14:32:21;16.77;;;3.70;;
10335;SDS011;5213;53.548;9.930;2023-12-20T14:34:46;13.82;;;3.80;;
10335;SDS011;5213;53.548;9.930;2023-12-20T14:37:12;6.78;;;2.90;;
10335;SDS011;5213;53.548;9.930;2023-12-20T14:39:38;18.17;;;4.07;;
10335;SDS011;5213;53.548;9.930;2023-12-20T14:42:09;14.00;;;3.38;;
10335;SDS011;5213;53.548;9.930;2023-12-20T14:44:42;11.45;;;2.90;;
10335;SDS011;5213;53.548;9.930;2023-12-20T14:47:08;11.40;;;2.88;;
10335;SDS011;5213;53.548;9.930;2023-12-20T14:49:33;10.80;;;3.03;;
10335;SDS011;5213;53.548;9.930;2023-12-20T14:52:00;10.35;;;3.58;;
10335;SDS011;5213;53.548;9.930;2023-12-20T14:54:25;10.52;;;4.07;;
10335;SDS011;5213;53.548;9.930;2023-12-20T14:56:51;9.65;;;3.38;;
10335;SDS011;5213;53.548;9.930;2023-12-20T14:59:17;7.43;;;2.63;;